sensor_id;sensor_type;location;lat;lon;timestamp;P1;durP1;ratioP1;P2;durP2;ratioP2
27804;SDS011;15183;51.350;11.102;2023-04-29T00:01:53;16.30;;;10.80;;
27804;SDS011;15183;51.350;11.102;2023-04-29T00:04:23;15.77;;;11.98;;
27804;SDS011;15183;51.350;11.102;2023-04-29T00:06:50;13.60;;;9.90;;
27804;SDS011;15183;51.350;11.102;2023-04-29T00:09:17;13.30;;;10.43;;
27804;SDS011;15183;51.350;11.102;2023-04-29T00:11:43;15.60;;;11.10;;
27804;SDS011;15183;51.350;11.102;2023-04-29T00:14:11;15.27;;;11.35;;
27804;SDS011;15183;51.350;11.102;2023-04-29T00:16:38;14.50;;;10.77;;
27804;SDS011;15183;51.350;11.102;2023-04-29T00:19:05;17.20;;;12.38;;
27804;SDS011;15183;51.350;11.102;2023-04-29T00:21:31;13.38;;;9.77;;
27804;SDS011;15183;51.350;11.102;2023-04-29T00:23:58;15.73;;;10.57;;
27804;SDS011;15183;51.350;11.102;2023-04-29T00:26:25;13.75;;;10.32;;
27804;SDS011;15183;51.350;11.102;2023-04-29T00:32:33;12.13;;;10.00;;
27804;SDS011;15183;51.350;11.102;2023-04-29T00:34:59;11.43;;;10.07;;
27804;SDS011;15183;51.350;11.102;2023-04-29T00:37:26;13.43;;;11.02;;
27804;SDS011;15183;51.350;11.102;2023-04-29T00:39:52;15.10;;;11.30;;
27804;SDS011;15183;51.350;11.102;2023-04-29T00:42:19;13.85;;;10.65;;
27804;SDS011;15183;51.350;11.102;2023-04-29T00:44:46;13.90;;;10.15;;
27804;SDS011;15183;51.350;11.102;2023-04-29T00:47:12;13.35;;;10.10;;
27804;SDS011;15183;51.350;11.102;2023-04-29T00:49:38;13.40;;;10.00;;
27804;SDS011;15183;51.350;11.102;2023-04-29T00:52:05;14.25;;;10.75;;
27804;SDS011;15183;51.350;11.102;2023-04-29T00:54:33;13.60;;;10.82;;
27804;SDS011;15183;51.350;11.102;2023-04-29T00:57:00;14.57;;;11.52;;
27804;SDS011;15183;51.350;11.102;2023-04-29T00:59:28;12.95;;;10.70;;
27804;SDS011;15183;51.350;11.102;2023-04-29T01:01:58;13.93;;;10.63;;
27804;SDS011;15183;51.350;11.102;2023-04-29T01:04:26;14.32;;;9.95;;
27804;SDS011;15183;51.350;11.102;2023-04-29T01:12:20;13.13;;;10.65;;
27804;SDS011;15183;51.350;11.102;2023-04-29T01:15:08;15.38;;;10.77;;
27804;SDS011;15183;51.350;11.102;2023-04-29T01:18:14;14.57;;;10.07;;
27804;SDS011;15183;51.350;11.102;2023-04-29T01:20:52;13.63;;;10.00;;
27804;SDS011;15183;51.350;11.102;2023-04-29T01:23:24;12.98;;;10.40;;
27804;SDS011;15183;51.350;11.102;2023-04-29T01:25:52;14.30;;;10.48;;
27804;SDS011;15183;51.350;11.102;2023-04-29T01:34:38;11.60;;;9.20;;
27804;SDS011;15183;51.350;11.102;2023-04-29T01:43:01;13.82;;;10.48;;
27804;SDS011;15183;51.350;11.102;2023-04-29T01:45:33;14.20;;;10.40;;
27804;SDS011;15183;51.350;11.102;2023-04-29T01:48:02;11.30;;;9.60;;
27804;SDS011;15183;51.350;11.102;2023-04-29T01:50:29;11.88;;;9.80;;
27804;SDS011;15183;51.350;11.102;2023-04-29T01:52:57;11.52;;;9.82;;
27804;SDS011;15183;51.350;11.102;2023-04-29T01:55:23;13.35;;;10.43;;
27804;SDS011;15183;51.350;11.102;2023-04-29T01:57:50;13.82;;;10.70;;
27804;SDS011;15183;51.350;11.102;2023-04-29T02:00:17;11.82;;;10.32;;
27804;SDS011;15183;51.350;11.102;2023-04-29T02:02:43;12.57;;;10.07;;
27804;SDS011;15183;51.350;11.102;2023-04-29T02:05:09;9.52;;;8.32;;
27804;SDS011;15183;51.350;11.102;2023-04-29T02:07:36;12.18;;;9.63;;
27804;SDS011;15183;51.350;11.102;2023-04-29T02:10:02;11.40;;;9.77;;
27804;SDS011;15183;51.350;11.102;2023-04-29T02:12:29;10.48;;;8.75;;
27804;SDS011;15183;51.350;11.102;2023-04-29T02:14:55;12.52;;;9.75;;
27804;SDS011;15183;51.350;11.102;2023-04-29T02:17:22;11.38;;;9.15;;
27804;SDS011;15183;51.350;11.102;2023-04-29T02:19:48;10.80;;;9.18;;
27804;SDS011;15183;51.350;11.102;2023-04-29T02:22:15;11.35;;;9.02;;
27804;SDS011;15183;51.350;11.102;2023-04-29T02:24:41;12.18;;;9.98;;
27804;SDS011;15183;51.350;11.102;2023-04-29T02:27:08;11.68;;;9.57;;
27804;SDS011;15183;51.350;11.102;2023-04-29T02:29:34;11.23;;;9.38;;
27804;SDS011;15183;51.350;11.102;2023-04-29T02:32:00;11.27;;;9.45;;
27804;SDS011;15183;51.350;11.102;2023-04-29T02:34:27;10.38;;;8.63;;
27804;SDS011;15183;51.350;11.102;2023-04-29T02:36:53;10.63;;;9.43;;
27804;SDS011;15183;51.350;11.102;2023-04-29T02:39:20;10.75;;;9.00;;
27804;SDS011;15183;51.350;11.102;2023-04-29T02:41:46;11.45;;;9.43;;
27804;SDS011;15183;51.350;11.102;2023-04-29T02:44:13;10.98;;;9.38;;
27804;SDS011;15183;51.350;11.102;2023-04-29T02:46:40;10.52;;;8.38;;
27804;SDS011;15183;51.350;11.102;2023-04-29T02:49:11;11.82;;;8.02;;
27804;SDS011;15183;51.350;11.102;2023-04-29T02:51:38;13.63;;;10.25;;
27804;SDS011;15183;51.350;11.102;2023-04-29T02:54:06;10.93;;;9.50;;
27804;SDS011;15183;51.350;11.102;2023-04-29T02:56:32;11.90;;;9.82;;
27804;SDS011;15183;51.350;11.102;2023-04-29T02:58:58;10.25;;;8.25;;
27804;SDS011;15183;51.350;11.102;2023-04-29T03:01:25;11.25;;;8.85;;
27804;SDS011;15183;51.350;11.102;2023-04-29T03:03:51;10.55;;;9.25;;
27804;SDS011;15183;51.350;11.102;2023-04-29T03:06:19;16.20;;;10.10;;
27804;SDS011;15183;51.350;11.102;2023-04-29T03:08:46;11.07;;;8.38;;
27804;SDS011;15183;51.350;11.102;2023-04-29T03:11:12;12.07;;;9.27;;
27804;SDS011;15183;51.350;11.102;2023-04-29T03:13:38;10.32;;;8.05;;
27804;SDS011;15183;51.350;11.102;2023-04-29T03:16:05;10.45;;;8.38;;
27804;SDS011;15183;51.350;11.102;2023-04-29T03:18:32;9.13;;;7.78;;
27804;SDS011;15183;51.350;11.102;2023-04-29T03:20:58;9.02;;;7.72;;
27804;SDS011;15183;51.350;11.102;2023-04-29T03:23:25;10.43;;;8.38;;
27804;SDS011;15183;51.350;11.102;2023-04-29T03:25:51;8.07;;;7.22;;
27804;SDS011;15183;51.350;11.102;2023-04-29T03:28:20;8.98;;;7.55;;
27804;SDS011;15183;51.350;11.102;2023-04-29T03:30:46;9.45;;;7.82;;
27804;SDS011;15183;51.350;11.102;2023-04-29T03:33:13;10.05;;;8.93;;
27804;SDS011;15183;51.350;11.102;2023-04-29T03:35:39;8.88;;;7.50;;
27804;SDS011;15183;51.350;11.102;2023-04-29T03:38:06;9.60;;;8.18;;
27804;SDS011;15183;51.350;11.102;2023-04-29T03:40:32;12.02;;;9.13;;
27804;SDS011;15183;51.350;11.102;2023-04-29T03:42:58;10.98;;;9.18;;
27804;SDS011;15183;51.350;11.102;2023-04-29T03:45:25;10.48;;;8.73;;
27804;SDS011;15183;51.350;11.102;2023-04-29T03:47:52;12.23;;;9.75;;
27804;SDS011;15183;51.350;11.102;2023-04-29T03:50:19;12.35;;;10.13;;
27804;SDS011;15183;51.350;11.102;2023-04-29T03:52:45;11.40;;;9.35;;
27804;SDS011;15183;51.350;11.102;2023-04-29T03:55:12;11.18;;;9.25;;
27804;SDS011;15183;51.350;11.102;2023-04-29T03:57:38;10.50;;;8.43;;
27804;SDS011;15183;51.350;11.102;2023-04-29T04:00:05;10.10;;;7.90;;
27804;SDS011;15183;51.350;11.102;2023-04-29T04:02:34;9.23;;;7.60;;
27804;SDS011;15183;51.350;11.102;2023-04-29T04:05:00;8.07;;;6.82;;
27804;SDS011;15183;51.350;11.102;2023-04-29T04:07:27;10.75;;;7.40;;
27804;SDS011;15183;51.350;11.102;2023-04-29T04:09:53;8.18;;;6.45;;
27804;SDS011;15183;51.350;11.102;2023-04-29T04:12:19;8.38;;;6.85;;
27804;SDS011;15183;51.350;11.102;2023-04-29T04:14:46;9.82;;;7.68;;
27804;SDS011;15183;51.350;11.102;2023-04-29T04:17:12;12.73;;;8.65;;
27804;SDS011;15183;51.350;11.102;2023-04-29T04:19:39;10.18;;;7.70;;
27804;SDS011;15183;51.350;11.102;2023-04-29T04:22:05;19.92;;;13.65;;
27804;SDS011;15183;51.350;11.102;2023-04-29T04:24:32;15.32;;;10.50;;
27804;SDS011;15183;51.350;11.102;2023-04-29T04:26:58;11.13;;;9.05;;
27804;SDS011;15183;51.350;11.102;2023-04-29T04:29:25;11.95;;;9.45;;
27804;SDS011;15183;51.350;11.102;2023-04-29T04:31:51;22.02;;;15.98;;
27804;SDS011;15183;51.350;11.102;2023-04-29T04:34:18;17.55;;;13.40;;
27804;SDS011;15183;51.350;11.102;2023-04-29T04:36:44;11.65;;;9.07;;
27804;SDS011;15183;51.350;11.102;2023-04-29T04:39:11;12.43;;;8.80;;
27804;SDS011;15183;51.350;11.102;2023-04-29T04:41:37;9.43;;;7.68;;
27804;SDS011;15183;51.350;11.102;2023-04-29T04:44:04;8.65;;;6.53;;
27804;SDS011;15183;51.350;11.102;2023-04-29T04:46:30;11.43;;;6.38;;
27804;SDS011;15183;51.350;11.102;2023-04-29T04:48:57;7.25;;;6.13;;
27804;SDS011;15183;51.350;11.102;2023-04-29T04:51:23;9.60;;;5.45;;
27804;SDS011;15183;51.350;11.102;2023-04-29T04:53:50;6.47;;;5.45;;
27804;SDS011;15183;51.350;11.102;2023-04-29T04:56:16;7.10;;;4.93;;
27804;SDS011;15183;51.350;11.102;2023-04-29T04:58:43;5.15;;;4.65;;
27804;SDS011;15183;51.350;11.102;2023-04-29T05:01:09;5.88;;;4.53;;
27804;SDS011;15183;51.350;11.102;2023-04-29T05:03:35;5.38;;;4.40;;
27804;SDS011;15183;51.350;11.102;2023-04-29T05:06:02;5.07;;;4.07;;
27804;SDS011;15183;51.350;11.102;2023-04-29T05:08:29;4.70;;;4.20;;
27804;SDS011;15183;51.350;11.102;2023-04-29T05:10:55;5.55;;;4.00;;
27804;SDS011;15183;51.350;11.102;2023-04-29T05:13:23;5.15;;;3.95;;
27804;SDS011;15183;51.350;11.102;2023-04-29T05:15:50;5.53;;;4.10;;
27804;SDS011;15183;51.350;11.102;2023-04-29T05:18:16;4.28;;;3.60;;
27804;SDS011;15183;51.350;11.102;2023-04-29T05:20:43;4.60;;;3.75;;
27804;SDS011;15183;51.350;11.102;2023-04-29T05:23:09;6.47;;;4.40;;
27804;SDS011;15183;51.350;11.102;2023-04-29T05:25:38;5.53;;;4.88;;
27804;SDS011;15183;51.350;11.102;2023-04-29T05:28:04;6.40;;;4.45;;
27804;SDS011;15183;51.350;11.102;2023-04-29T05:30:32;7.13;;;4.65;;
27804;SDS011;15183;51.350;11.102;2023-04-29T05:32:58;6.57;;;4.88;;
27804;SDS011;15183;51.350;11.102;2023-04-29T05:35:25;8.23;;;6.85;;
27804;SDS011;15183;51.350;11.102;2023-04-29T05:37:51;9.63;;;6.15;;
27804;SDS011;15183;51.350;11.102;2023-04-29T05:40:18;11.68;;;8.65;;
27804;SDS011;15183;51.350;11.102;2023-04-29T05:42:44;8.65;;;7.20;;
27804;SDS011;15183;51.350;11.102;2023-04-29T05:45:11;9.82;;;6.88;;
27804;SDS011;15183;51.350;11.102;2023-04-29T05:47:37;8.77;;;7.15;;
27804;SDS011;15183;51.350;11.102;2023-04-29T05:50:04;10.85;;;7.40;;
27804;SDS011;15183;51.350;11.102;2023-04-29T05:52:31;11.93;;;8.13;;
27804;SDS011;15183;51.350;11.102;2023-04-29T05:54:58;8.98;;;6.95;;
27804;SDS011;15183;51.350;11.102;2023-04-29T05:57:24;11.45;;;8.27;;
27804;SDS011;15183;51.350;11.102;2023-04-29T05:59:50;9.32;;;7.30;;
27804;SDS011;15183;51.350;11.102;2023-04-29T06:02:19;15.57;;;9.35;;
27804;SDS011;15183;51.350;11.102;2023-04-29T06:04:46;12.27;;;8.00;;
27804;SDS011;15183;51.350;11.102;2023-04-29T06:07:12;9.75;;;7.35;;
27804;SDS011;15183;51.350;11.102;2023-04-29T06:09:39;10.30;;;7.85;;
27804;SDS011;15183;51.350;11.102;2023-04-29T06:12:06;9.82;;;7.78;;
27804;SDS011;15183;51.350;11.102;2023-04-29T06:14:33;11.55;;;7.97;;
27804;SDS011;15183;51.350;11.102;2023-04-29T06:16:59;12.95;;;8.48;;
27804;SDS011;15183;51.350;11.102;2023-04-29T06:19:26;10.95;;;8.00;;
27804;SDS011;15183;51.350;11.102;2023-04-29T06:21:53;9.43;;;7.70;;
27804;SDS011;15183;51.350;11.102;2023-04-29T06:24:19;13.68;;;8.65;;
27804;SDS011;15183;51.350;11.102;2023-04-29T06:26:45;12.88;;;8.93;;
27804;SDS011;15183;51.350;11.102;2023-04-29T06:29:13;12.52;;;8.70;;
27804;SDS011;15183;51.350;11.102;2023-04-29T06:31:39;11.55;;;8.23;;
27804;SDS011;15183;51.350;11.102;2023-04-29T06:34:06;10.40;;;7.75;;
27804;SDS011;15183;51.350;11.102;2023-04-29T06:36:32;10.98;;;8.05;;
27804;SDS011;15183;51.350;11.102;2023-04-29T06:38:59;13.88;;;8.23;;
27804;SDS011;15183;51.350;11.102;2023-04-29T06:41:25;10.68;;;7.68;;
27804;SDS011;15183;51.350;11.102;2023-04-29T06:43:51;9.88;;;7.43;;
27804;SDS011;15183;51.350;11.102;2023-04-29T06:46:18;9.77;;;7.60;;
27804;SDS011;15183;51.350;11.102;2023-04-29T06:48:44;10.93;;;7.50;;
27804;SDS011;15183;51.350;11.102;2023-04-29T06:51:11;9.27;;;6.30;;
27804;SDS011;15183;51.350;11.102;2023-04-29T06:53:37;8.57;;;6.28;;
27804;SDS011;15183;51.350;11.102;2023-04-29T06:56:04;8.23;;;6.25;;
27804;SDS011;15183;51.350;11.102;2023-04-29T06:58:31;10.65;;;6.88;;
27804;SDS011;15183;51.350;11.102;2023-04-29T07:03:52;9.02;;;5.68;;
27804;SDS011;15183;51.350;11.102;2023-04-29T07:06:19;8.07;;;5.88;;
27804;SDS011;15183;51.350;11.102;2023-04-29T07:08:45;6.80;;;5.53;;
27804;SDS011;15183;51.350;11.102;2023-04-29T07:11:11;7.50;;;5.43;;
27804;SDS011;15183;51.350;11.102;2023-04-29T07:13:38;7.68;;;5.63;;
27804;SDS011;15183;51.350;11.102;2023-04-29T07:16:04;6.53;;;5.35;;
27804;SDS011;15183;51.350;11.102;2023-04-29T07:18:39;7.38;;;5.53;;
27804;SDS011;15183;51.350;11.102;2023-04-29T07:21:06;8.77;;;5.50;;
27804;SDS011;15183;51.350;11.102;2023-04-29T07:23:33;5.97;;;5.28;;
27804;SDS011;15183;51.350;11.102;2023-04-29T07:26:07;7.90;;;5.63;;
27804;SDS011;15183;51.350;11.102;2023-04-29T07:28:38;7.10;;;5.65;;
27804;SDS011;15183;51.350;11.102;2023-04-29T07:31:05;8.10;;;5.82;;
27804;SDS011;15183;51.350;11.102;2023-04-29T07:33:32;10.85;;;6.80;;
27804;SDS011;15183;51.350;11.102;2023-04-29T07:36:00;11.07;;;8.43;;
27804;SDS011;15183;51.350;11.102;2023-04-29T07:38:27;10.38;;;7.13;;
27804;SDS011;15183;51.350;11.102;2023-04-29T07:40:54;10.20;;;7.25;;
27804;SDS011;15183;51.350;11.102;2023-04-29T07:43:20;8.25;;;5.82;;
27804;SDS011;15183;51.350;11.102;2023-04-29T07:45:47;8.45;;;6.35;;
27804;SDS011;15183;51.350;11.102;2023-04-29T07:48:13;9.55;;;6.45;;
27804;SDS011;15183;51.350;11.102;2023-04-29T07:50:40;7.85;;;5.68;;
27804;SDS011;15183;51.350;11.102;2023-04-29T07:53:07;11.68;;;7.57;;
27804;SDS011;15183;51.350;11.102;2023-04-29T07:55:35;10.00;;;7.07;;
27804;SDS011;15183;51.350;11.102;2023-04-29T07:58:03;8.38;;;6.43;;
27804;SDS011;15183;51.350;11.102;2023-04-29T08:00:29;12.70;;;8.82;;
27804;SDS011;15183;51.350;11.102;2023-04-29T08:02:56;11.93;;;7.30;;
27804;SDS011;15183;51.350;11.102;2023-04-29T08:05:22;16.80;;;10.05;;
27804;SDS011;15183;51.350;11.102;2023-04-29T08:07:49;11.35;;;7.97;;
27804;SDS011;15183;51.350;11.102;2023-04-29T08:10:16;10.73;;;7.38;;
27804;SDS011;15183;51.350;11.102;2023-04-29T08:12:47;7.13;;;5.97;;
27804;SDS011;15183;51.350;11.102;2023-04-29T08:15:14;8.15;;;6.18;;
27804;SDS011;15183;51.350;11.102;2023-04-29T08:17:41;12.32;;;8.02;;
27804;SDS011;15183;51.350;11.102;2023-04-29T08:20:07;11.68;;;7.68;;
27804;SDS011;15183;51.350;11.102;2023-04-29T08:22:34;10.57;;;8.07;;
27804;SDS011;15183;51.350;11.102;2023-04-29T08:25:02;9.20;;;6.72;;
27804;SDS011;15183;51.350;11.102;2023-04-29T08:27:30;11.50;;;8.68;;
27804;SDS011;15183;51.350;11.102;2023-04-29T08:29:56;10.70;;;6.15;;
27804;SDS011;15183;51.350;11.102;2023-04-29T08:32:23;8.75;;;7.07;;
27804;SDS011;15183;51.350;11.102;2023-04-29T08:34:50;11.05;;;8.15;;
27804;SDS011;15183;51.350;11.102;2023-04-29T08:37:16;11.02;;;8.32;;
27804;SDS011;15183;51.350;11.102;2023-04-29T08:39:42;8.02;;;5.63;;
27804;SDS011;15183;51.350;11.102;2023-04-29T08:42:11;10.30;;;7.03;;
27804;SDS011;15183;51.350;11.102;2023-04-29T08:44:39;7.40;;;5.97;;
27804;SDS011;15183;51.350;11.102;2023-04-29T08:47:06;5.95;;;4.55;;
27804;SDS011;15183;51.350;11.102;2023-04-29T08:49:33;6.35;;;4.95;;
27804;SDS011;15183;51.350;11.102;2023-04-29T08:52:02;7.68;;;5.80;;
27804;SDS011;15183;51.350;11.102;2023-04-29T08:54:30;9.07;;;7.22;;
27804;SDS011;15183;51.350;11.102;2023-04-29T08:56:57;12.70;;;7.72;;
27804;SDS011;15183;51.350;11.102;2023-04-29T08:59:25;9.70;;;7.35;;
27804;SDS011;15183;51.350;11.102;2023-04-29T09:01:53;9.55;;;6.97;;
27804;SDS011;15183;51.350;11.102;2023-04-29T09:04:36;8.85;;;6.85;;
27804;SDS011;15183;51.350;11.102;2023-04-29T09:07:13;6.63;;;5.68;;
27804;SDS011;15183;51.350;11.102;2023-04-29T09:09:40;7.43;;;5.88;;
27804;SDS011;15183;51.350;11.102;2023-04-29T09:12:06;15.20;;;10.77;;
27804;SDS011;15183;51.350;11.102;2023-04-29T09:14:33;11.98;;;9.65;;
27804;SDS011;15183;51.350;11.102;2023-04-29T09:17:00;17.95;;;13.48;;
27804;SDS011;15183;51.350;11.102;2023-04-29T09:19:30;13.40;;;10.25;;
27804;SDS011;15183;51.350;11.102;2023-04-29T09:21:59;14.65;;;10.63;;
27804;SDS011;15183;51.350;11.102;2023-04-29T09:24:27;12.73;;;8.73;;
27804;SDS011;15183;51.350;11.102;2023-04-29T09:26:55;17.35;;;12.38;;
27804;SDS011;15183;51.350;11.102;2023-04-29T09:29:23;19.27;;;12.75;;
27804;SDS011;15183;51.350;11.102;2023-04-29T09:31:50;13.73;;;9.65;;
27804;SDS011;15183;51.350;11.102;2023-04-29T09:34:34;10.40;;;6.75;;
27804;SDS011;15183;51.350;11.102;2023-04-29T09:37:02;9.93;;;7.97;;
27804;SDS011;15183;51.350;11.102;2023-04-29T09:39:36;8.05;;;6.75;;
27804;SDS011;15183;51.350;11.102;2023-04-29T09:42:04;9.25;;;7.40;;
27804;SDS011;15183;51.350;11.102;2023-04-29T09:44:32;9.00;;;7.35;;
27804;SDS011;15183;51.350;11.102;2023-04-29T09:47:06;8.82;;;6.97;;
27804;SDS011;15183;51.350;11.102;2023-04-29T09:52:13;11.63;;;7.82;;
27804;SDS011;15183;51.350;11.102;2023-04-29T09:54:42;10.82;;;8.50;;
27804;SDS011;15183;51.350;11.102;2023-04-29T09:57:09;11.98;;;9.18;;
27804;SDS011;15183;51.350;11.102;2023-04-29T09:59:38;10.85;;;8.82;;
27804;SDS011;15183;51.350;11.102;2023-04-29T10:02:12;17.95;;;11.30;;
27804;SDS011;15183;51.350;11.102;2023-04-29T10:04:40;12.20;;;9.15;;
27804;SDS011;15183;51.350;11.102;2023-04-29T10:07:09;12.85;;;9.32;;
27804;SDS011;15183;51.350;11.102;2023-04-29T10:09:41;11.68;;;8.52;;
27804;SDS011;15183;51.350;11.102;2023-04-29T10:12:11;15.25;;;10.30;;
27804;SDS011;15183;51.350;11.102;2023-04-29T10:14:44;12.82;;;9.63;;
27804;SDS011;15183;51.350;11.102;2023-04-29T10:17:22;15.18;;;10.95;;
27804;SDS011;15183;51.350;11.102;2023-04-29T10:20:03;14.77;;;9.55;;
27804;SDS011;15183;51.350;11.102;2023-04-29T10:22:44;17.40;;;10.70;;
27804;SDS011;15183;51.350;11.102;2023-04-29T10:25:17;16.27;;;12.13;;
27804;SDS011;15183;51.350;11.102;2023-04-29T10:27:47;13.50;;;10.80;;
27804;SDS011;15183;51.350;11.102;2023-04-29T10:30:17;13.50;;;10.05;;
27804;SDS011;15183;51.350;11.102;2023-04-29T10:32:47;11.45;;;8.68;;
27804;SDS011;15183;51.350;11.102;2023-04-29T10:35:15;11.80;;;9.25;;
27804;SDS011;15183;51.350;11.102;2023-04-29T10:37:47;17.00;;;11.27;;
27804;SDS011;15183;51.350;11.102;2023-04-29T10:42:50;12.90;;;9.88;;
27804;SDS011;15183;51.350;11.102;2023-04-29T10:50:27;15.90;;;12.27;;
27804;SDS011;15183;51.350;11.102;2023-04-29T10:52:54;11.10;;;9.80;;
27804;SDS011;15183;51.350;11.102;2023-04-29T10:55:23;12.05;;;10.05;;
27804;SDS011;15183;51.350;11.102;2023-04-29T10:57:53;11.00;;;9.55;;
27804;SDS011;15183;51.350;11.102;2023-04-29T11:00:27;10.65;;;8.98;;
27804;SDS011;15183;51.350;11.102;2023-04-29T11:02:56;11.98;;;10.07;;
27804;SDS011;15183;51.350;11.102;2023-04-29T11:08:11;11.77;;;10.05;;
27804;SDS011;15183;51.350;11.102;2023-04-29T11:10:41;15.02;;;10.32;;
27804;SDS011;15183;51.350;11.102;2023-04-29T11:13:21;11.40;;;9.75;;
27804;SDS011;15183;51.350;11.102;2023-04-29T11:15:50;11.43;;;10.18;;
27804;SDS011;15183;51.350;11.102;2023-04-29T11:18:18;10.95;;;8.85;;
27804;SDS011;15183;51.350;11.102;2023-04-29T11:23:29;7.43;;;6.40;;
27804;SDS011;15183;51.350;11.102;2023-04-29T11:25:56;5.60;;;4.63;;
27804;SDS011;15183;51.350;11.102;2023-04-29T11:28:23;4.03;;;3.63;;
27804;SDS011;15183;51.350;11.102;2023-04-29T11:30:49;4.07;;;3.67;;
27804;SDS011;15183;51.350;11.102;2023-04-29T11:33:16;4.05;;;3.65;;
27804;SDS011;15183;51.350;11.102;2023-04-29T11:35:44;4.00;;;3.60;;
27804;SDS011;15183;51.350;11.102;2023-04-29T11:38:11;3.92;;;3.30;;
27804;SDS011;15183;51.350;11.102;2023-04-29T11:40:42;4.50;;;4.10;;
27804;SDS011;15183;51.350;11.102;2023-04-29T11:43:21;5.07;;;4.40;;
27804;SDS011;15183;51.350;11.102;2023-04-29T11:45:49;4.03;;;3.63;;
27804;SDS011;15183;51.350;11.102;2023-04-29T11:48:17;4.97;;;3.97;;
27804;SDS011;15183;51.350;11.102;2023-04-29T11:50:46;4.10;;;3.70;;
27804;SDS011;15183;51.350;11.102;2023-04-29T11:53:24;3.40;;;3.10;;
27804;SDS011;15183;51.350;11.102;2023-04-29T11:55:54;4.50;;;4.07;;
27804;SDS011;15183;51.350;11.102;2023-04-29T11:58:21;4.57;;;3.50;;
27804;SDS011;15183;51.350;11.102;2023-04-29T12:00:49;3.42;;;3.13;;
27804;SDS011;15183;51.350;11.102;2023-04-29T12:03:19;4.43;;;4.03;;
27804;SDS011;15183;51.350;11.102;2023-04-29T12:05:52;4.82;;;4.43;;
27804;SDS011;15183;51.350;11.102;2023-04-29T12:08:24;7.63;;;5.53;;
27804;SDS011;15183;51.350;11.102;2023-04-29T12:10:56;6.35;;;5.75;;
27804;SDS011;15183;51.350;11.102;2023-04-29T12:13:25;8.40;;;5.97;;
27804;SDS011;15183;51.350;11.102;2023-04-29T12:15:54;6.80;;;5.30;;
27804;SDS011;15183;51.350;11.102;2023-04-29T12:18:23;6.25;;;5.65;;
27804;SDS011;15183;51.350;11.102;2023-04-29T12:20:50;7.90;;;6.35;;
27804;SDS011;15183;51.350;11.102;2023-04-29T12:23:18;7.38;;;6.68;;
27804;SDS011;15183;51.350;11.102;2023-04-29T12:25:49;7.00;;;6.32;;
27804;SDS011;15183;51.350;11.102;2023-04-29T12:28:16;6.28;;;5.65;;
27804;SDS011;15183;51.350;11.102;2023-04-29T12:30:47;6.75;;;6.00;;
27804;SDS011;15183;51.350;11.102;2023-04-29T12:33:20;5.97;;;5.47;;
27804;SDS011;15183;51.350;11.102;2023-04-29T12:35:50;5.93;;;5.38;;
27804;SDS011;15183;51.350;11.102;2023-04-29T12:38:28;6.40;;;5.68;;
27804;SDS011;15183;51.350;11.102;2023-04-29T12:40:57;8.00;;;6.53;;
27804;SDS011;15183;51.350;11.102;2023-04-29T12:43:30;7.55;;;6.63;;
27804;SDS011;15183;51.350;11.102;2023-04-29T12:46:04;7.05;;;5.93;;
27804;SDS011;15183;51.350;11.102;2023-04-29T12:48:37;6.05;;;4.95;;
27804;SDS011;15183;51.350;11.102;2023-04-29T12:51:09;6.47;;;5.75;;
27804;SDS011;15183;51.350;11.102;2023-04-29T12:53:36;10.77;;;5.55;;
27804;SDS011;15183;51.350;11.102;2023-04-29T12:56:04;6.88;;;4.90;;
27804;SDS011;15183;51.350;11.102;2023-04-29T12:58:31;7.20;;;5.47;;
27804;SDS011;15183;51.350;11.102;2023-04-29T13:00:59;8.40;;;5.75;;
27804;SDS011;15183;51.350;11.102;2023-04-29T13:03:25;8.93;;;6.32;;
27804;SDS011;15183;51.350;11.102;2023-04-29T13:05:52;7.40;;;5.95;;
27804;SDS011;15183;51.350;11.102;2023-04-29T13:08:19;6.93;;;5.60;;
27804;SDS011;15183;51.350;11.102;2023-04-29T13:10:46;7.20;;;5.60;;
27804;SDS011;15183;51.350;11.102;2023-04-29T13:13:12;7.85;;;6.40;;
27804;SDS011;15183;51.350;11.102;2023-04-29T13:15:39;6.53;;;5.88;;
27804;SDS011;15183;51.350;11.102;2023-04-29T13:18:05;7.40;;;5.28;;
27804;SDS011;15183;51.350;11.102;2023-04-29T13:20:32;7.03;;;5.65;;
27804;SDS011;15183;51.350;11.102;2023-04-29T13:22:58;6.20;;;5.57;;
27804;SDS011;15183;51.350;11.102;2023-04-29T13:25:24;5.53;;;4.97;;
27804;SDS011;15183;51.350;11.102;2023-04-29T13:27:51;7.00;;;6.07;;
27804;SDS011;15183;51.350;11.102;2023-04-29T13:30:17;7.80;;;6.53;;
27804;SDS011;15183;51.350;11.102;2023-04-29T13:32:44;6.78;;;5.05;;
27804;SDS011;15183;51.350;11.102;2023-04-29T13:35:10;5.32;;;4.82;;
27804;SDS011;15183;51.350;11.102;2023-04-29T13:37:37;5.90;;;5.30;;
27804;SDS011;15183;51.350;11.102;2023-04-29T13:40:04;7.35;;;5.78;;
27804;SDS011;15183;51.350;11.102;2023-04-29T13:42:32;7.28;;;6.03;;
27804;SDS011;15183;51.350;11.102;2023-04-29T13:44:59;9.10;;;6.40;;
27804;SDS011;15183;51.350;11.102;2023-04-29T13:47:25;11.57;;;9.02;;
27804;SDS011;15183;51.350;11.102;2023-04-29T13:49:51;20.90;;;14.32;;
27804;SDS011;15183;51.350;11.102;2023-04-29T13:52:18;13.73;;;9.90;;
27804;SDS011;15183;51.350;11.102;2023-04-29T13:54:45;19.23;;;12.18;;
27804;SDS011;15183;51.350;11.102;2023-04-29T13:57:11;18.30;;;12.02;;
27804;SDS011;15183;51.350;11.102;2023-04-29T13:59:37;23.88;;;15.52;;
27804;SDS011;15183;51.350;11.102;2023-04-29T14:02:04;20.48;;;11.38;;
27804;SDS011;15183;51.350;11.102;2023-04-29T14:04:30;15.73;;;9.52;;
27804;SDS011;15183;51.350;11.102;2023-04-29T14:06:58;10.90;;;7.82;;
27804;SDS011;15183;51.350;11.102;2023-04-29T14:09:24;10.05;;;8.02;;
27804;SDS011;15183;51.350;11.102;2023-04-29T14:11:50;8.82;;;6.45;;
27804;SDS011;15183;51.350;11.102;2023-04-29T14:14:17;8.75;;;7.03;;
27804;SDS011;15183;51.350;11.102;2023-04-29T14:16:43;7.22;;;5.90;;
27804;SDS011;15183;51.350;11.102;2023-04-29T14:19:10;7.00;;;6.30;;
27804;SDS011;15183;51.350;11.102;2023-04-29T14:21:36;6.43;;;5.65;;
27804;SDS011;15183;51.350;11.102;2023-04-29T14:24:03;8.93;;;5.43;;
27804;SDS011;15183;51.350;11.102;2023-04-29T14:26:29;7.45;;;6.00;;
27804;SDS011;15183;51.350;11.102;2023-04-29T14:28:58;9.57;;;5.85;;
27804;SDS011;15183;51.350;11.102;2023-04-29T14:31:25;5.32;;;4.82;;
27804;SDS011;15183;51.350;11.102;2023-04-29T14:33:55;6.68;;;5.25;;
27804;SDS011;15183;51.350;11.102;2023-04-29T14:36:23;5.97;;;5.18;;
27804;SDS011;15183;51.350;11.102;2023-04-29T14:38:49;7.70;;;5.20;;
27804;SDS011;15183;51.350;11.102;2023-04-29T14:41:16;8.60;;;6.25;;
27804;SDS011;15183;51.350;11.102;2023-04-29T14:43:43;6.57;;;5.90;;
27804;SDS011;15183;51.350;11.102;2023-04-29T14:46:09;8.27;;;6.18;;
27804;SDS011;15183;51.350;11.102;2023-04-29T14:48:36;6.78;;;5.35;;
27804;SDS011;15183;51.350;11.102;2023-04-29T14:51:02;7.63;;;5.80;;
27804;SDS011;15183;51.350;11.102;2023-04-29T14:53:29;9.00;;;6.15;;
27804;SDS011;15183;51.350;11.102;2023-04-29T14:55:55;7.32;;;5.43;;
27804;SDS011;15183;51.350;11.102;2023-04-29T14:58:22;6.65;;;5.38;;
27804;SDS011;15183;51.350;11.102;2023-04-29T15:00:48;7.47;;;5.63;;
27804;SDS011;15183;51.350;11.102;2023-04-29T15:03:15;7.00;;;5.70;;
27804;SDS011;15183;51.350;11.102;2023-04-29T15:05:43;10.00;;;6.68;;
27804;SDS011;15183;51.350;11.102;2023-04-29T15:08:10;7.35;;;5.88;;
27804;SDS011;15183;51.350;11.102;2023-04-29T15:10:37;7.68;;;5.30;;